createdAt,value
2022-10-19T00:01:03.872Z,4.95
2022-10-19T00:03:33.800Z,4.75
2022-10-19T00:06:03.485Z,4.30
2022-10-19T00:08:33.077Z,4.60
2022-10-19T00:11:03.980Z,4.40
2022-10-19T00:13:33.975Z,4.28
2022-10-19T00:16:11.603Z,4.20
2022-10-19T00:18:43.302Z,5.07
2022-10-19T00:21:14.538Z,5.18
2022-10-19T00:23:44.516Z,4.40
2022-10-19T00:26:14.118Z,4.88
2022-10-19T00:28:43.694Z,4.30
2022-10-19T00:31:18.402Z,4.70
2022-10-19T00:33:49.268Z,5.05
2022-10-19T00:36:20.301Z,4.80
2022-10-19T00:38:50.352Z,5.20
2022-10-19T00:41:21.193Z,5.25
2022-10-19T00:43:58.802Z,4.97
2022-10-19T00:46:32.743Z,4.93
2022-10-19T00:49:07.103Z,4.90
2022-10-19T00:51:42.373Z,5.05
2022-10-19T00:54:12.564Z,5.25
2022-10-19T00:56:43.773Z,5.30
2022-10-19T00:59:14.012Z,4.78
2022-10-19T01:01:47.381Z,5.15
2022-10-19T01:04:17.208Z,4.20
2022-10-19T01:06:46.813Z,4.82
2022-10-19T01:09:16.837Z,4.43
2022-10-19T01:11:55.990Z,4.78
2022-10-19T01:14:34.075Z,4.53
2022-10-19T01:17:13.116Z,4.72
2022-10-19T01:20:09.880Z,4.18
2022-10-19T01:22:53.308Z,4.10
2022-10-19T01:25:25.858Z,4.30
2022-10-19T01:28:21.061Z,3.90
2022-10-19T01:30:56.154Z,5.18
2022-10-19T01:33:35.041Z,4.32
2022-10-19T01:36:09.371Z,4.80
2022-10-19T01:38:41.250Z,4.50
2022-10-19T01:41:17.906Z,4.65
2022-10-19T01:43:51.725Z,4.78
2022-10-19T01:46:26.519Z,4.40
2022-10-19T01:48:59.541Z,4.30
2022-10-19T01:51:33.075Z,4.45
2022-10-19T01:54:06.260Z,5.00
2022-10-19T01:56:37.243Z,4.40
2022-10-19T01:59:09.711Z,4.90
2022-10-19T02:01:45.191Z,4.38
2022-10-19T02:04:16.332Z,5.07
2022-10-19T02:06:46.158Z,4.32
2022-10-19T02:09:18.293Z,4.82
2022-10-19T02:11:50.480Z,4.70
2022-10-19T02:14:24.788Z,5.15
2022-10-19T02:17:00.696Z,4.90
2022-10-19T02:19:30.731Z,4.90
2022-10-19T02:22:00.509Z,4.70
2022-10-19T02:24:30.176Z,4.82
2022-10-19T02:27:00.594Z,4.80
2022-10-19T02:29:30.352Z,4.53
2022-10-19T02:32:02.806Z,5.30
2022-10-19T02:34:32.621Z,5.15
2022-10-19T02:37:02.371Z,5.15
2022-10-19T02:39:32.171Z,5.28
2022-10-19T02:42:06.887Z,5.32
2022-10-19T02:44:41.280Z,5.30
2022-10-19T02:47:16.323Z,6.10
2022-10-19T02:49:46.710Z,5.07
2022-10-19T02:52:16.548Z,5.47
2022-10-19T02:54:47.249Z,5.53
2022-10-19T02:57:20.854Z,5.00
2022-10-19T02:59:50.506Z,5.63
2022-10-19T03:02:23.615Z,5.45
2022-10-19T03:04:53.157Z,5.47
2022-10-19T03:07:24.051Z,5.97
2022-10-19T03:09:54.279Z,5.65
2022-10-19T03:12:23.853Z,5.95
2022-10-19T03:14:53.467Z,5.72
2022-10-19T03:17:25.581Z,5.38
2022-10-19T03:19:55.111Z,5.20
2022-10-19T03:22:24.652Z,5.93
2022-10-19T03:24:54.238Z,5.60
2022-10-19T03:27:23.776Z,5.68
2022-10-19T03:29:53.319Z,5.07
2022-10-19T03:32:25.498Z,5.22
2022-10-19T03:34:55.061Z,6.53
2022-10-19T03:37:24.707Z,5.78
2022-10-19T03:39:54.981Z,6.57
2022-10-19T03:42:24.520Z,13.18
2022-10-19T03:44:54.078Z,9.07
2022-10-19T03:47:26.233Z,6.80
2022-10-19T03:49:55.781Z,6.93
2022-10-19T03:52:25.288Z,7.50
2022-10-19T03:54:54.873Z,7.28
2022-10-19T03:57:24.428Z,8.68
2022-10-19T03:59:53.989Z,7.30
2022-10-19T04:02:26.608Z,6.22
2022-10-19T04:04:56.604Z,7.13
2022-10-19T04:07:26.184Z,7.88
2022-10-19T04:09:56.325Z,6.93
2022-10-19T04:12:25.837Z,7.57
2022-10-19T04:14:57.795Z,7.60
2022-10-19T04:17:30.588Z,7.63
2022-10-19T04:20:00.229Z,7.18
2022-10-19T04:22:29.734Z,7.43
2022-10-19T04:24:59.272Z,7.20
2022-10-19T04:27:28.780Z,8.55
2022-10-19T04:29:58.348Z,8.50
2022-10-19T04:32:30.516Z,8.35
2022-10-19T04:35:00.077Z,9.32
2022-10-19T04:37:29.606Z,10.95
2022-10-19T04:39:59.149Z,10.85
2022-10-19T04:42:28.696Z,11.48
2022-10-19T04:44:58.238Z,12.60
2022-10-19T04:47:31.840Z,13.80
2022-10-19T04:50:01.635Z,13.60
2022-10-19T04:52:31.264Z,13.43
2022-10-19T04:55:00.816Z,14.07
2022-10-19T04:57:30.431Z,14.23
2022-10-19T05:00:00.023Z,13.73
2022-10-19T05:02:32.118Z,14.00
2022-10-19T05:05:01.654Z,11.95
2022-10-19T05:07:31.416Z,12.32
2022-10-19T05:10:01.156Z,10.90
2022-10-19T05:12:30.696Z,11.23
2022-10-19T05:15:00.243Z,11.75
2022-10-19T05:17:33.929Z,11.75
2022-10-19T05:20:03.661Z,11.55
2022-10-19T05:22:33.167Z,11.90
2022-10-19T05:25:02.707Z,12.32
2022-10-19T05:27:32.552Z,11.65
2022-10-19T05:30:02.381Z,10.70
2022-10-19T05:32:34.528Z,11.55
2022-10-19T05:35:04.106Z,12.93
2022-10-19T05:37:33.846Z,11.88
2022-10-19T05:40:03.575Z,13.00
2022-10-19T05:42:33.126Z,13.27
2022-10-19T05:45:03.189Z,13.85
2022-10-19T05:47:37.315Z,13.20
2022-10-19T05:50:07.869Z,13.95
2022-10-19T05:52:37.928Z,13.05
2022-10-19T05:55:08.700Z,13.98
2022-10-19T05:57:38.233Z,13.65
2022-10-19T06:00:08.795Z,14.82
2022-10-19T06:02:43.945Z,13.68
2022-10-19T06:05:13.507Z,13.60
2022-10-19T06:07:43.003Z,13.45
2022-10-19T06:10:13.002Z,13.68
2022-10-19T06:12:42.504Z,13.70
2022-10-19T06:15:12.966Z,12.20
2022-10-19T06:17:45.090Z,12.45
2022-10-19T06:20:15.065Z,11.70
2022-10-19T06:22:44.614Z,13.15
2022-10-19T06:25:17.989Z,14.35
2022-10-19T06:27:50.174Z,13.82
2022-10-19T06:30:20.025Z,13.73
2022-10-19T06:32:52.289Z,13.95
2022-10-19T06:35:22.043Z,13.70
2022-10-19T06:37:51.611Z,29.40
2022-10-19T06:40:21.176Z,11.43
2022-10-19T06:42:50.731Z,10.73
2022-10-19T06:45:20.524Z,10.25
2022-10-19T06:47:52.662Z,8.95
2022-10-19T06:50:23.148Z,9.38
2022-10-19T06:52:52.674Z,7.63
2022-10-19T06:55:22.338Z,8.60
2022-10-19T06:57:51.872Z,7.88
2022-10-19T07:00:21.485Z,8.27
2022-10-19T07:02:53.602Z,7.70
2022-10-19T07:05:23.162Z,7.82
2022-10-19T07:07:52.822Z,7.72
2022-10-19T07:10:22.414Z,7.40
2022-10-19T07:12:52.021Z,7.00
2022-10-19T07:15:21.557Z,6.38
2022-10-19T07:17:55.676Z,6.70
2022-10-19T07:20:25.215Z,6.53
2022-10-19T07:22:54.786Z,6.22
2022-10-19T07:25:25.002Z,5.90
2022-10-19T07:27:54.540Z,6.28
2022-10-19T07:30:24.187Z,5.75
2022-10-19T07:32:56.364Z,5.40
2022-10-19T07:35:25.885Z,5.47
2022-10-19T07:37:55.446Z,5.22
2022-10-19T07:40:24.962Z,5.20
2022-10-19T07:42:54.490Z,5.15
2022-10-19T07:45:24.224Z,4.90
2022-10-19T07:47:56.394Z,4.53
2022-10-19T07:50:27.701Z,4.55
2022-10-19T07:52:58.075Z,4.40
2022-10-19T07:55:27.706Z,4.40
2022-10-19T07:58:01.501Z,4.50
2022-10-19T08:05:52.547Z,4.20
2022-10-19T08:08:22.140Z,4.35
2022-10-19T08:10:51.695Z,4.25
2022-10-19T08:13:21.259Z,3.78
2022-10-19T08:15:50.949Z,4.10
2022-10-19T08:18:23.645Z,3.70
2022-10-19T08:20:53.254Z,3.90
2022-10-19T08:23:22.999Z,3.75
2022-10-19T08:25:52.773Z,3.50
2022-10-19T08:28:22.363Z,3.45
2022-10-19T08:30:52.006Z,3.40
2022-10-19T08:33:24.140Z,3.10
2022-10-19T08:35:53.964Z,3.50
2022-10-19T08:38:23.620Z,3.10
2022-10-19T08:40:53.172Z,3.10
2022-10-19T08:43:27.035Z,3.03
2022-10-19T08:46:00.124Z,2.92
2022-10-19T08:48:36.762Z,3.15
2022-10-19T08:51:09.392Z,3.05
2022-10-19T08:53:48.936Z,3.43
2022-10-19T08:56:49.854Z,3.08
2022-10-19T08:59:19.474Z,2.92
2022-10-19T09:01:53.325Z,2.85
2022-10-19T09:04:28.088Z,3.10
2022-10-19T09:07:12.872Z,2.95
2022-10-19T09:12:43.472Z,3.00
2022-10-19T09:15:16.094Z,3.10
2022-10-19T09:17:45.700Z,3.13
2022-10-19T09:20:22.956Z,2.92
2022-10-19T09:23:01.920Z,3.00
2022-10-19T09:25:33.405Z,3.03
2022-10-19T09:28:09.458Z,3.10
2022-10-19T09:30:40.175Z,2.80
2022-10-19T09:33:19.302Z,2.80
2022-10-19T09:35:51.528Z,3.10
2022-10-19T09:38:22.382Z,2.83
2022-10-19T09:40:51.917Z,3.00
2022-10-19T09:43:22.583Z,3.15
2022-10-19T09:45:54.854Z,3.30
2022-10-19T09:48:30.811Z,2.80
2022-10-19T09:51:04.728Z,2.85
2022-10-19T09:53:34.354Z,2.90
2022-10-19T09:56:08.522Z,2.63
2022-10-19T09:58:38.500Z,2.70
2022-10-19T10:01:08.348Z,2.95
2022-10-19T10:03:40.807Z,2.80
2022-10-19T10:06:16.171Z,2.65
2022-10-19T10:08:49.305Z,2.97
2022-10-19T10:11:26.413Z,2.50
2022-10-19T10:13:57.710Z,2.67
2022-10-19T10:16:33.754Z,2.85
2022-10-19T10:19:06.932Z,2.95
2022-10-19T10:21:50.313Z,3.13
2022-10-19T10:24:21.325Z,3.20
2022-10-19T10:26:52.624Z,2.60
2022-10-19T10:29:24.367Z,3.00
2022-10-19T10:31:55.674Z,2.90
2022-10-19T10:34:51.932Z,3.00
2022-10-19T10:37:27.544Z,2.70
2022-10-19T10:40:02.021Z,3.20
2022-10-19T10:42:38.143Z,4.35
2022-10-19T10:45:19.046Z,2.83
2022-10-19T10:47:49.152Z,2.75
2022-10-19T10:50:24.050Z,3.05
2022-10-19T10:53:04.194Z,2.90
2022-10-19T10:55:34.871Z,2.80
2022-10-19T10:58:13.178Z,2.70
2022-10-19T11:00:43.790Z,2.70
2022-10-19T11:03:17.583Z,2.90
2022-10-19T11:05:48.829Z,2.90
2022-10-19T11:08:25.297Z,2.25
2022-10-19T11:10:59.323Z,2.50
2022-10-19T11:16:01.890Z,2.20
2022-10-19T11:18:33.480Z,2.47
2022-10-19T11:21:08.525Z,2.67
2022-10-19T11:23:54.325Z,2.58
2022-10-19T11:26:36.176Z,2.45
2022-10-19T11:29:17.049Z,2.53
2022-10-19T11:31:51.088Z,2.38
2022-10-19T11:37:00.451Z,2.38
2022-10-19T11:39:42.822Z,2.40
2022-10-19T11:42:20.905Z,2.45
2022-10-19T11:45:01.136Z,1.92
2022-10-19T11:47:43.285Z,2.10
2022-10-19T11:50:32.475Z,1.92
2022-10-19T11:53:10.292Z,2.03
2022-10-19T11:55:47.478Z,2.25
2022-10-19T11:58:34.894Z,1.92
2022-10-19T12:01:15.444Z,2.05
2022-10-19T12:04:06.828Z,1.80
2022-10-19T12:06:42.764Z,1.67
2022-10-19T12:09:21.538Z,1.77
2022-10-19T12:12:05.750Z,1.73
2022-10-19T12:14:38.724Z,1.40
2022-10-19T12:17:10.541Z,1.70
2022-10-19T12:19:43.062Z,1.50
2022-10-19T12:22:18.040Z,1.27
2022-10-19T12:24:48.450Z,1.55
2022-10-19T12:27:24.047Z,1.67
2022-10-19T12:29:53.672Z,2.00
2022-10-19T12:32:24.603Z,1.35
2022-10-19T12:34:59.244Z,1.50
2022-10-19T12:37:34.465Z,1.67
2022-10-19T12:40:08.149Z,1.60
2022-10-19T12:42:51.396Z,1.50
2022-10-19T12:45:30.405Z,1.55
2022-10-19T12:48:19.008Z,1.80
2022-10-19T12:51:03.925Z,1.83
2022-10-19T12:53:36.238Z,1.80
2022-10-19T12:56:07.623Z,1.80
2022-10-19T12:58:48.123Z,1.38
2022-10-19T13:01:21.227Z,1.50
2022-10-19T13:03:52.556Z,1.40
2022-10-19T13:06:33.566Z,1.98
2022-10-19T13:09:06.185Z,1.98
2022-10-19T13:11:36.144Z,1.73
2022-10-19T13:14:10.159Z,1.60
2022-10-19T13:19:30.236Z,1.38
2022-10-19T13:22:26.705Z,1.42
2022-10-19T13:25:29.577Z,1.70
2022-10-19T13:28:03.023Z,1.70
2022-10-19T13:31:11.558Z,1.60
2022-10-19T13:33:52.991Z,1.60
2022-10-19T13:36:23.581Z,6.85
2022-10-19T13:39:13.040Z,2.10
2022-10-19T13:42:03.288Z,1.67
2022-10-19T13:44:37.522Z,1.55
2022-10-19T13:47:22.884Z,1.67
2022-10-19T13:50:19.646Z,1.60
2022-10-19T13:53:19.546Z,1.67
2022-10-19T13:56:02.248Z,1.50
2022-10-19T13:58:48.772Z,1.70
2022-10-19T14:01:28.704Z,1.60
2022-10-19T14:04:10.977Z,1.83
2022-10-19T14:06:46.107Z,1.98
2022-10-19T14:09:28.342Z,1.50
2022-10-19T14:12:06.790Z,1.73
2022-10-19T14:17:21.247Z,1.88
2022-10-19T14:19:55.400Z,2.00
2022-10-19T14:22:30.105Z,1.75
2022-10-19T14:25:04.129Z,2.00
2022-10-19T14:30:03.781Z,1.70
2022-10-19T14:32:36.140Z,1.63
2022-10-19T14:35:21.937Z,2.22
2022-10-19T14:37:51.939Z,2.20
2022-10-19T14:40:30.348Z,1.85
2022-10-19T14:43:01.076Z,2.20
2022-10-19T14:45:32.562Z,2.00
2022-10-19T14:48:03.739Z,1.70
2022-10-19T14:50:44.548Z,1.77
2022-10-19T14:53:28.312Z,2.28
2022-10-19T14:56:01.041Z,2.13
2022-10-19T14:58:37.456Z,2.10
2022-10-19T15:01:07.263Z,3.20
2022-10-19T15:03:40.212Z,2.00
2022-10-19T15:06:21.097Z,1.70
2022-10-19T15:11:28.620Z,1.95
2022-10-19T15:14:00.655Z,2.25
2022-10-19T15:16:33.242Z,2.42
2022-10-19T15:19:06.405Z,2.13
2022-10-19T15:21:38.551Z,2.45
2022-10-19T15:24:18.948Z,2.60
2022-10-19T15:27:06.602Z,2.33
2022-10-19T15:29:38.583Z,2.30
2022-10-19T15:32:18.733Z,2.22
2022-10-19T15:34:48.714Z,2.42
2022-10-19T15:40:16.931Z,2.58
2022-10-19T15:42:48.841Z,2.50
2022-10-19T15:45:32.995Z,2.63
2022-10-19T15:48:18.776Z,2.22
2022-10-19T15:50:50.222Z,2.33
2022-10-19T15:53:23.744Z,2.50
2022-10-19T15:55:53.391Z,2.58
2022-10-19T15:58:23.064Z,3.10
2022-10-19T16:00:52.649Z,2.45
2022-10-19T16:03:23.157Z,2.58
2022-10-19T16:05:52.860Z,2.40
2022-10-19T16:08:25.090Z,2.47
2022-10-19T16:10:54.708Z,2.58
2022-10-19T16:13:24.270Z,2.65
2022-10-19T16:16:01.430Z,2.38
2022-10-19T16:18:40.239Z,5.03
2022-10-19T16:21:10.457Z,2.63
2022-10-19T16:23:42.667Z,2.85
2022-10-19T16:26:12.457Z,2.80
2022-10-19T16:28:41.998Z,2.72
2022-10-19T16:31:11.633Z,2.50
2022-10-19T16:33:41.183Z,2.63
2022-10-19T16:36:11.839Z,3.00
2022-10-19T16:38:44.091Z,2.58
2022-10-19T16:41:13.956Z,3.10
2022-10-19T16:43:43.659Z,2.30
2022-10-19T16:46:13.420Z,3.17
2022-10-19T16:48:42.932Z,3.13
2022-10-19T16:51:23.938Z,3.15
2022-10-19T16:53:57.617Z,3.63
2022-10-19T16:56:28.708Z,3.00
2022-10-19T16:58:59.903Z,3.20
2022-10-19T17:01:30.031Z,3.00
2022-10-19T17:03:59.664Z,3.17
2022-10-19T17:06:30.546Z,3.25
2022-10-19T17:09:30.247Z,2.97
2022-10-19T17:11:52.416Z,3.13
2022-10-19T17:14:21.941Z,3.20
2022-10-19T17:16:51.533Z,3.13
2022-10-19T17:19:21.049Z,3.17
2022-10-19T17:21:50.579Z,3.33
2022-10-19T17:24:23.190Z,3.38
2022-10-19T17:26:53.772Z,2.90
2022-10-19T17:29:24.230Z,2.90
2022-10-19T17:31:54.006Z,3.30
2022-10-19T17:34:23.900Z,3.22
2022-10-19T17:36:53.419Z,3.00
2022-10-19T17:39:29.224Z,2.63
2022-10-19T17:42:02.031Z,3.20
2022-10-19T17:44:32.703Z,3.00
2022-10-19T17:47:02.556Z,3.03
2022-10-19T17:49:32.143Z,2.63
2022-10-19T17:52:01.705Z,2.78
2022-10-19T17:54:43.459Z,3.15
2022-10-19T17:57:23.334Z,3.25
2022-10-19T17:59:53.291Z,3.00
2022-10-19T18:02:23.046Z,3.85
2022-10-19T18:04:52.560Z,3.33
2022-10-19T18:07:25.643Z,3.85
2022-10-19T18:09:57.744Z,3.97
2022-10-19T18:12:27.281Z,3.28
2022-10-19T18:14:56.852Z,3.90
2022-10-19T18:17:27.770Z,3.40
2022-10-19T18:19:57.549Z,3.78
2022-10-19T18:22:27.102Z,3.80
2022-10-19T18:24:59.228Z,3.40
2022-10-19T18:27:28.799Z,3.55
2022-10-19T18:29:58.360Z,3.50
2022-10-19T18:32:28.025Z,3.50
2022-10-19T18:34:57.511Z,3.67
2022-10-19T18:37:28.705Z,3.78
2022-10-19T18:40:00.828Z,3.70
2022-10-19T18:42:30.610Z,4.13
2022-10-19T18:45:00.134Z,4.07
2022-10-19T18:47:29.655Z,3.88
2022-10-19T18:49:59.159Z,4.45
2022-10-19T18:52:28.782Z,3.60
2022-10-19T18:55:00.994Z,4.32
2022-10-19T18:57:31.826Z,3.47
2022-10-19T19:00:01.642Z,3.83
2022-10-19T19:02:42.258Z,3.83
2022-10-19T19:05:15.971Z,3.47
2022-10-19T19:07:45.489Z,3.50
2022-10-19T19:10:18.175Z,4.10
2022-10-19T19:12:47.711Z,4.20
2022-10-19T19:15:17.287Z,4.07
2022-10-19T19:17:47.565Z,3.90
2022-10-19T19:20:17.100Z,3.67
2022-10-19T19:22:46.687Z,3.90
2022-10-19T19:25:18.825Z,4.10
2022-10-19T19:27:48.398Z,4.20
2022-10-19T19:30:18.017Z,3.97
2022-10-19T19:32:47.548Z,4.20
2022-10-19T19:35:17.248Z,3.70
2022-10-19T19:37:46.875Z,4.43
2022-10-19T19:40:19.417Z,4.35
2022-10-19T19:42:49.463Z,4.45
2022-10-19T19:45:19.055Z,4.15
2022-10-19T19:47:48.645Z,4.00
2022-10-19T19:50:18.266Z,4.43
2022-10-19T19:52:48.592Z,4.50
2022-10-19T19:55:20.761Z,4.00
2022-10-19T19:57:53.901Z,4.85
2022-10-19T20:00:23.737Z,4.90
2022-10-19T20:02:56.882Z,4.40
2022-10-19T20:05:26.924Z,5.10
2022-10-19T20:07:56.516Z,4.82
2022-10-19T20:10:28.874Z,4.38
2022-10-19T20:12:58.459Z,4.43
2022-10-19T20:15:27.984Z,5.88
2022-10-19T20:17:57.545Z,4.75
2022-10-19T20:20:27.121Z,4.57
2022-10-19T20:22:56.723Z,4.60
2022-10-19T20:25:28.878Z,4.45
2022-10-19T20:27:58.477Z,4.78
2022-10-19T20:30:27.983Z,4.60
2022-10-19T20:32:58.745Z,4.50
2022-10-19T20:35:28.584Z,4.90
2022-10-19T20:37:58.623Z,4.32
2022-10-19T20:40:30.738Z,4.40
2022-10-19T20:43:00.301Z,5.10
2022-10-19T20:45:29.862Z,4.90
2022-10-19T20:47:59.427Z,5.00
2022-10-19T20:50:28.982Z,4.85
2022-10-19T20:52:58.492Z,4.60
2022-10-19T20:55:30.702Z,5.00
2022-10-19T20:58:00.221Z,5.10
2022-10-19T21:00:29.771Z,5.07
2022-10-19T21:02:59.489Z,5.00
2022-10-19T21:05:29.436Z,4.40
2022-10-19T21:07:59.018Z,4.72
2022-10-19T21:10:31.716Z,5.43
2022-10-19T21:13:01.289Z,5.00
2022-10-19T21:15:30.788Z,5.30
2022-10-19T21:18:00.351Z,4.90
2022-10-19T21:20:30.507Z,5.20
2022-10-19T21:23:01.079Z,5.15
2022-10-19T21:25:33.165Z,5.25
2022-10-19T21:28:02.732Z,5.13
2022-10-19T21:30:32.225Z,5.38
2022-10-19T21:33:01.734Z,5.40
2022-10-19T21:35:31.290Z,5.30
2022-10-19T21:38:01.053Z,5.35
2022-10-19T21:40:33.139Z,5.45
2022-10-19T21:43:02.665Z,5.20
2022-10-19T21:45:32.195Z,5.88
2022-10-19T21:48:01.755Z,5.68
2022-10-19T21:50:31.285Z,6.00
2022-10-19T21:53:00.811Z,5.82
2022-10-19T21:55:35.894Z,5.75
2022-10-19T21:58:05.971Z,6.05
2022-10-19T22:00:36.481Z,6.82
2022-10-19T22:03:06.473Z,6.25
2022-10-19T22:05:36.093Z,6.47
2022-10-19T22:08:05.692Z,6.65
2022-10-19T22:10:40.375Z,6.32
2022-10-19T22:13:09.910Z,5.88
2022-10-19T22:15:39.970Z,6.88
2022-10-19T22:18:09.779Z,6.63
2022-10-19T22:20:39.697Z,6.93
2022-10-19T22:23:10.283Z,6.20
2022-10-19T22:25:42.404Z,6.45
2022-10-19T22:28:11.931Z,7.20
2022-10-19T22:30:45.021Z,7.13
2022-10-19T22:33:14.680Z,7.10
2022-10-19T22:35:44.253Z,7.20
2022-10-19T22:38:13.846Z,6.47
2022-10-19T22:40:45.969Z,6.90
2022-10-19T22:43:15.539Z,7.00
2022-10-19T22:45:45.126Z,7.55
2022-10-19T22:48:14.692Z,7.47
2022-10-19T22:50:44.245Z,7.18
2022-10-19T22:53:13.945Z,7.45
2022-10-19T22:55:46.104Z,7.30
2022-10-19T22:58:15.698Z,7.40
2022-10-19T23:00:45.293Z,7.28
2022-10-19T23:03:14.932Z,6.78
2022-10-19T23:05:44.498Z,7.25
2022-10-19T23:08:14.109Z,7.35
2022-10-19T23:10:46.280Z,7.32
2022-10-19T23:13:15.932Z,8.90
2022-10-19T23:15:46.300Z,7.55
2022-10-19T23:18:16.117Z,7.55
2022-10-19T23:20:46.041Z,7.20
2022-10-19T23:23:15.665Z,6.95
2022-10-19T23:25:48.287Z,7.20
2022-10-19T23:28:18.255Z,7.10
2022-10-19T23:30:47.984Z,7.35
2022-10-19T23:33:17.569Z,7.43
2022-10-19T23:35:47.152Z,7.07
2022-10-19T23:38:16.710Z,7.45
2022-10-19T23:40:48.880Z,7.43
2022-10-19T23:43:18.515Z,7.00
2022-10-19T23:45:48.232Z,6.72
2022-10-19T23:48:17.773Z,7.45
2022-10-19T23:50:47.433Z,7.75
2022-10-19T23:53:16.998Z,7.60
2022-10-19T23:55:49.108Z,6.90
2022-10-19T23:58:18.678Z,7.30
